sensor_id;sensor_type;location;lat;lon;timestamp;pressure;altitude;pressure_sealevel;temperature;humidity
22389;BME280;11362;48.102;11.620;2023-05-28T00:02:24;95366.47;;;23.98;41.96
22389;BME280;11362;48.102;11.620;2023-05-28T00:04:49;95366.47;;;23.98;42.11
22389;BME280;11362;48.102;11.620;2023-05-28T00:07:14;95360.13;;;23.97;42.15
22389;BME280;11362;48.102;11.620;2023-05-28T00:09:40;95366.06;;;23.99;42.36
22389;BME280;11362;48.102;11.620;2023-05-28T00:12:05;95364.06;;;24.00;42.03
22389;BME280;11362;48.102;11.620;2023-05-28T00:14:31;95357.34;;;23.97;41.84
22389;BME280;11362;48.102;11.620;2023-05-28T00:16:56;95364.84;;;24.00;42.06
22389;BME280;11362;48.102;11.620;2023-05-28T00:19:21;95356.16;;;23.98;42.13
22389;BME280;11362;48.102;11.620;2023-05-28T00:21:46;95351.81;;;23.97;42.09
22389;BME280;11362;48.102;11.620;2023-05-28T00:24:12;95356.16;;;23.98;41.95
22389;BME280;11362;48.102;11.620;2023-05-28T00:26:37;95356.16;;;23.98;42.17
22389;BME280;11362;48.102;11.620;2023-05-28T00:29:02;95357.75;;;23.99;41.87
22389;BME280;11362;48.102;11.620;2023-05-28T00:31:28;95353.75;;;24.00;41.76
22389;BME280;11362;48.102;11.620;2023-05-28T00:33:53;95354.97;;;23.99;41.95
22389;BME280;11362;48.102;11.620;2023-05-28T00:36:18;95350.59;;;23.98;41.91
22389;BME280;11362;48.102;11.620;2023-05-28T00:38:44;95350.59;;;23.98;41.96
22389;BME280;11362;48.102;11.620;2023-05-28T00:41:09;95353.38;;;23.98;42.18
22389;BME280;11362;48.102;11.620;2023-05-28T00:43:34;95351.81;;;23.97;41.78
22389;BME280;11362;48.102;11.620;2023-05-28T00:46:00;95353.00;;;23.96;41.69
22389;BME280;11362;48.102;11.620;2023-05-28T00:48:27;95345.50;;;23.97;41.89
22389;BME280;11362;48.102;11.620;2023-05-28T00:50:53;95348.25;;;23.97;41.92
22389;BME280;11362;48.102;11.620;2023-05-28T00:53:19;95347.47;;;23.96;41.85
22389;BME280;11362;48.102;11.620;2023-05-28T00:55:45;95339.13;;;23.96;41.84
22389;BME280;11362;48.102;11.620;2023-05-28T00:58:10;95348.25;;;23.97;41.92
22389;BME280;11362;48.102;11.620;2023-05-28T01:00:37;95346.69;;;23.96;41.90
22389;BME280;11362;48.102;11.620;2023-05-28T01:03:03;95350.25;;;23.96;41.88
22389;BME280;11362;48.102;11.620;2023-05-28T01:05:28;95351.44;;;23.95;41.94
22389;BME280;11362;48.102;11.620;2023-05-28T01:07:54;95345.91;;;23.95;42.01
22389;BME280;11362;48.102;11.620;2023-05-28T01:10:19;95345.53;;;23.93;41.94
22389;BME280;11362;48.102;11.620;2023-05-28T01:12:44;95354.63;;;23.94;41.82
22389;BME280;11362;48.102;11.620;2023-05-28T01:15:10;95350.66;;;23.95;41.96
22389;BME280;11362;48.102;11.620;2023-05-28T01:17:36;95355.44;;;23.94;41.82
22389;BME280;11362;48.102;11.620;2023-05-28T01:20:01;95347.88;;;23.95;41.92
22389;BME280;11362;48.102;11.620;2023-05-28T01:22:28;95350.66;;;23.95;42.00
22389;BME280;11362;48.102;11.620;2023-05-28T01:24:54;95348.31;;;23.93;41.80
22389;BME280;11362;48.102;11.620;2023-05-28T01:27:21;95340.00;;;23.93;41.63
22389;BME280;11362;48.102;11.620;2023-05-28T01:29:46;95345.16;;;23.91;41.79
22389;BME280;11362;48.102;11.620;2023-05-28T01:32:11;95334.03;;;23.91;41.88
22389;BME280;11362;48.102;11.620;2023-05-28T01:34:37;95339.59;;;23.91;41.93
22389;BME280;11362;48.102;11.620;2023-05-28T01:37:06;95334.03;;;23.91;42.03
22389;BME280;11362;48.102;11.620;2023-05-28T01:39:35;95328.50;;;23.91;42.14
22389;BME280;11362;48.102;11.620;2023-05-28T01:42:03;95337.63;;;23.92;42.03
22389;BME280;11362;48.102;11.620;2023-05-28T01:44:29;95326.94;;;23.90;41.96
22389;BME280;11362;48.102;11.620;2023-05-28T01:46:56;95330.50;;;23.91;41.93
22389;BME280;11362;48.102;11.620;2023-05-28T01:49:21;95327.72;;;23.91;41.96
22389;BME280;11362;48.102;11.620;2023-05-28T01:51:47;95324.16;;;23.90;42.13
22389;BME280;11362;48.102;11.620;2023-05-28T01:54:13;95326.94;;;23.90;41.90
22389;BME280;11362;48.102;11.620;2023-05-28T01:56:38;95332.47;;;23.90;42.04
22389;BME280;11362;48.102;11.620;2023-05-28T01:59:03;95331.28;;;23.91;41.95
22389;BME280;11362;48.102;11.620;2023-05-28T02:01:30;95327.72;;;23.91;41.92
22389;BME280;11362;48.102;11.620;2023-05-28T02:03:56;95332.47;;;23.90;41.77
22389;BME280;11362;48.102;11.620;2023-05-28T02:06:23;95330.91;;;23.89;42.11
22389;BME280;11362;48.102;11.620;2023-05-28T02:08:48;95327.72;;;23.91;41.92
22389;BME280;11362;48.102;11.620;2023-05-28T02:11:14;95334.03;;;23.91;41.87
22389;BME280;11362;48.102;11.620;2023-05-28T02:13:39;95329.72;;;23.90;41.93
22389;BME280;11362;48.102;11.620;2023-05-28T02:16:05;95326.94;;;23.90;41.79
22389;BME280;11362;48.102;11.620;2023-05-28T02:18:30;95324.16;;;23.90;41.96
22389;BME280;11362;48.102;11.620;2023-05-28T02:20:56;95322.19;;;23.91;41.76
22389;BME280;11362;48.102;11.620;2023-05-28T02:23:21;95317.41;;;23.91;41.93
22389;BME280;11362;48.102;11.620;2023-05-28T02:25:46;95317.41;;;23.91;41.94
22389;BME280;11362;48.102;11.620;2023-05-28T02:28:11;95313.84;;;23.91;41.89
22389;BME280;11362;48.102;11.620;2023-05-28T02:30:37;95319.00;;;23.92;41.84
22389;BME280;11362;48.102;11.620;2023-05-28T02:33:02;95321.03;;;23.88;42.00
22389;BME280;11362;48.102;11.620;2023-05-28T02:35:27;95316.69;;;23.87;42.05
22389;BME280;11362;48.102;11.620;2023-05-28T02:37:53;95309.56;;;23.86;41.90
22389;BME280;11362;48.102;11.620;2023-05-28T02:40:18;95319.06;;;23.85;41.97
22389;BME280;11362;48.102;11.620;2023-05-28T02:42:43;95315.13;;;23.86;42.08
22389;BME280;11362;48.102;11.620;2023-05-28T02:45:09;95324.63;;;23.85;41.95
22389;BME280;11362;48.102;11.620;2023-05-28T02:47:34;95318.28;;;23.85;41.94
22389;BME280;11362;48.102;11.620;2023-05-28T02:49:59;95325.03;;;23.84;41.98
22389;BME280;11362;48.102;11.620;2023-05-28T02:52:25;95325.88;;;23.81;41.86
22389;BME280;11362;48.102;11.620;2023-05-28T02:54:50;95321.50;;;23.80;41.86
22389;BME280;11362;48.102;11.620;2023-05-28T02:57:15;95330.25;;;23.78;42.01
22389;BME280;11362;48.102;11.620;2023-05-28T02:59:40;95337.38;;;23.79;42.22
22389;BME280;11362;48.102;11.620;2023-05-28T03:02:06;95333.81;;;23.79;41.94
22389;BME280;11362;48.102;11.620;2023-05-28T03:04:31;95336.56;;;23.79;41.99
22389;BME280;11362;48.102;11.620;2023-05-28T03:06:57;95337.38;;;23.79;42.04
22389;BME280;11362;48.102;11.620;2023-05-28T03:09:22;95342.94;;;23.79;41.97
22389;BME280;11362;48.102;11.620;2023-05-28T03:11:47;95338.59;;;23.78;41.67
22389;BME280;11362;48.102;11.620;2023-05-28T03:14:13;95340.56;;;23.78;42.02
22389;BME280;11362;48.102;11.620;2023-05-28T03:16:38;95342.56;;;23.77;42.08
22389;BME280;11362;48.102;11.620;2023-05-28T03:19:03;95346.91;;;23.78;41.97
22389;BME280;11362;48.102;11.620;2023-05-28T03:21:28;95350.88;;;23.77;41.87
22389;BME280;11362;48.102;11.620;2023-05-28T03:23:54;95358.00;;;23.78;42.10
22389;BME280;11362;48.102;11.620;2023-05-28T03:26:19;95352.44;;;23.78;42.03
22389;BME280;11362;48.102;11.620;2023-05-28T03:28:44;95352.44;;;23.78;42.02
22389;BME280;11362;48.102;11.620;2023-05-28T03:31:11;95354.03;;;23.79;42.14
22389;BME280;11362;48.102;11.620;2023-05-28T03:33:37;95348.09;;;23.77;41.80
22389;BME280;11362;48.102;11.620;2023-05-28T03:36:02;95349.69;;;23.78;41.98
22389;BME280;11362;48.102;11.620;2023-05-28T03:38:27;95355.22;;;23.78;41.92
22389;BME280;11362;48.102;11.620;2023-05-28T03:40:53;95345.34;;;23.77;41.95
22389;BME280;11362;48.102;11.620;2023-05-28T03:43:18;95346.09;;;23.78;41.95
22389;BME280;11362;48.102;11.620;2023-05-28T03:45:43;95352.44;;;23.78;42.11
22389;BME280;11362;48.102;11.620;2023-05-28T03:48:09;95348.09;;;23.77;41.75
22389;BME280;11362;48.102;11.620;2023-05-28T03:50:34;95346.91;;;23.78;42.07
22389;BME280;11362;48.102;11.620;2023-05-28T03:52:59;95349.69;;;23.78;41.70
22389;BME280;11362;48.102;11.620;2023-05-28T03:55:24;95340.56;;;23.78;41.92
22389;BME280;11362;48.102;11.620;2023-05-28T03:57:50;95340.56;;;23.78;41.90
22389;BME280;11362;48.102;11.620;2023-05-28T04:00:15;95349.28;;;23.76;41.79
22389;BME280;11362;48.102;11.620;2023-05-28T04:02:41;95346.09;;;23.78;41.90
22389;BME280;11362;48.102;11.620;2023-05-28T04:05:06;95345.38;;;23.74;41.97
22389;BME280;11362;48.102;11.620;2023-05-28T04:07:32;95345.34;;;23.77;41.98
22389;BME280;11362;48.102;11.620;2023-05-28T04:09:57;95340.97;;;23.76;41.80
22389;BME280;11362;48.102;11.620;2023-05-28T04:12:22;95350.09;;;23.77;41.75
22389;BME280;11362;48.102;11.620;2023-05-28T04:14:48;95350.88;;;23.77;41.84
22389;BME280;11362;48.102;11.620;2023-05-28T04:17:13;95349.28;;;23.76;41.90
22389;BME280;11362;48.102;11.620;2023-05-28T04:19:39;95353.66;;;23.77;41.74
22389;BME280;11362;48.102;11.620;2023-05-28T04:22:05;95350.88;;;23.77;41.85
22389;BME280;11362;48.102;11.620;2023-05-28T04:24:30;95354.44;;;23.78;41.95
22389;BME280;11362;48.102;11.620;2023-05-28T04:26:55;95352.84;;;23.77;41.88
22389;BME280;11362;48.102;11.620;2023-05-28T04:29:21;95342.97;;;23.76;41.88
22389;BME280;11362;48.102;11.620;2023-05-28T04:31:46;95350.88;;;23.77;41.89
22389;BME280;11362;48.102;11.620;2023-05-28T04:34:13;95353.25;;;23.75;41.90
22389;BME280;11362;48.102;11.620;2023-05-28T04:36:38;95351.28;;;23.76;41.85
22389;BME280;11362;48.102;11.620;2023-05-28T04:39:03;95354.84;;;23.76;41.93
22389;BME280;11362;48.102;11.620;2023-05-28T04:41:28;95360.38;;;23.76;41.96
22389;BME280;11362;48.102;11.620;2023-05-28T04:43:54;95367.13;;;23.75;41.89
22389;BME280;11362;48.102;11.620;2023-05-28T04:46:19;95371.47;;;23.76;41.96
22389;BME280;11362;48.102;11.620;2023-05-28T04:48:44;95371.47;;;23.76;41.91
22389;BME280;11362;48.102;11.620;2023-05-28T04:51:10;95362.78;;;23.74;42.07
22389;BME280;11362;48.102;11.620;2023-05-28T04:53:35;95367.94;;;23.76;41.89
22389;BME280;11362;48.102;11.620;2023-05-28T04:56:00;95367.53;;;23.77;41.82
22389;BME280;11362;48.102;11.620;2023-05-28T04:58:26;95365.94;;;23.76;42.03
22389;BME280;11362;48.102;11.620;2023-05-28T05:00:51;95366.72;;;23.77;41.79
22389;BME280;11362;48.102;11.620;2023-05-28T05:03:16;95364.34;;;23.75;41.77
22389;BME280;11362;48.102;11.620;2023-05-28T05:05:41;95366.38;;;23.75;41.92
22389;BME280;11362;48.102;11.620;2023-05-28T05:08:07;95366.38;;;23.75;41.96
22389;BME280;11362;48.102;11.620;2023-05-28T05:10:32;95364.34;;;23.75;41.93
22389;BME280;11362;48.102;11.620;2023-05-28T05:12:57;95369.91;;;23.75;41.93
22389;BME280;11362;48.102;11.620;2023-05-28T05:15:23;95375.47;;;23.75;41.84
22389;BME280;11362;48.102;11.620;2023-05-28T05:17:48;95375.47;;;23.75;41.98
22389;BME280;11362;48.102;11.620;2023-05-28T05:20:13;95371.47;;;23.76;41.87
22389;BME280;11362;48.102;11.620;2023-05-28T05:22:38;95370.66;;;23.79;42.00
22389;BME280;11362;48.102;11.620;2023-05-28T05:25:04;95367.47;;;23.81;42.11
22389;BME280;11362;48.102;11.620;2023-05-28T05:27:29;95372.59;;;23.82;42.27
22389;BME280;11362;48.102;11.620;2023-05-28T05:29:55;95372.19;;;23.84;42.29
22389;BME280;11362;48.102;11.620;2023-05-28T05:32:20;95365.81;;;23.87;43.13
22389;BME280;11362;48.102;11.620;2023-05-28T05:34:45;95382.47;;;23.87;42.67
22389;BME280;11362;48.102;11.620;2023-05-28T05:37:11;95372.94;;;23.88;42.85
22389;BME280;11362;48.102;11.620;2023-05-28T05:39:36;95369.41;;;23.87;42.86
22389;BME280;11362;48.102;11.620;2023-05-28T05:42:01;95366.97;;;23.89;42.88
22389;BME280;11362;48.102;11.620;2023-05-28T05:44:26;95366.97;;;23.89;42.98
22389;BME280;11362;48.102;11.620;2023-05-28T05:46:52;95377.66;;;23.91;42.91
22389;BME280;11362;48.102;11.620;2023-05-28T05:49:17;95367.78;;;23.90;42.92
22389;BME280;11362;48.102;11.620;2023-05-28T05:51:42;95353.09;;;23.89;42.85
22389;BME280;11362;48.102;11.620;2023-05-28T05:54:08;95370.13;;;23.91;42.92
22389;BME280;11362;48.102;11.620;2023-05-28T05:56:33;95371.72;;;23.92;43.07
22389;BME280;11362;48.102;11.620;2023-05-28T05:58:58;95371.28;;;23.94;42.99
22389;BME280;11362;48.102;11.620;2023-05-28T06:01:24;95363.75;;;23.94;43.03
22389;BME280;11362;48.102;11.620;2023-05-28T06:03:49;95364.97;;;23.93;43.33
22389;BME280;11362;48.102;11.620;2023-05-28T06:06:14;95360.97;;;23.94;43.11
22389;BME280;11362;48.102;11.620;2023-05-28T06:08:40;95362.94;;;23.94;43.25
22389;BME280;11362;48.102;11.620;2023-05-28T06:11:05;95348.31;;;23.93;43.43
22389;BME280;11362;48.102;11.620;2023-05-28T06:13:31;95362.19;;;23.93;43.41
22389;BME280;11362;48.102;11.620;2023-05-28T06:15:57;95363.34;;;23.96;43.39
22389;BME280;11362;48.102;11.620;2023-05-28T06:18:22;95357.00;;;23.95;43.38
22389;BME280;11362;48.102;11.620;2023-05-28T06:20:48;95357.78;;;23.96;43.40
22389;BME280;11362;48.102;11.620;2023-05-28T06:23:13;95367.25;;;23.98;43.67
22389;BME280;11362;48.102;11.620;2023-05-28T06:25:38;95362.91;;;23.97;43.65
22389;BME280;11362;48.102;11.620;2023-05-28T06:28:04;95344.28;;;23.98;43.73
22389;BME280;11362;48.102;11.620;2023-05-28T06:30:29;95341.91;;;23.96;43.79
22389;BME280;11362;48.102;11.620;2023-05-28T06:32:55;95348.31;;;23.93;42.44
22389;BME280;11362;48.102;11.620;2023-05-28T06:35:20;95364.16;;;23.93;42.44
22389;BME280;11362;48.102;11.620;2023-05-28T06:37:45;95363.38;;;23.92;42.40
22389;BME280;11362;48.102;11.620;2023-05-28T06:40:10;95370.06;;;23.95;42.68
22389;BME280;11362;48.102;11.620;2023-05-28T06:42:36;95371.63;;;23.99;42.89
22389;BME280;11362;48.102;11.620;2023-05-28T06:45:02;95344.59;;;24.03;42.64
22389;BME280;11362;48.102;11.620;2023-05-28T06:47:27;95350.94;;;24.04;42.84
22389;BME280;11362;48.102;11.620;2023-05-28T06:49:53;95347.38;;;24.03;42.45
22389;BME280;11362;48.102;11.620;2023-05-28T06:52:18;95349.78;;;24.01;42.77
22389;BME280;11362;48.102;11.620;2023-05-28T06:54:43;95348.97;;;24.01;42.73
22389;BME280;11362;48.102;11.620;2023-05-28T06:57:08;95342.28;;;23.98;42.35
22389;BME280;11362;48.102;11.620;2023-05-28T06:59:34;95350.25;;;23.96;42.43
22389;BME280;11362;48.102;11.620;2023-05-28T07:01:59;95346.69;;;23.96;42.22
22389;BME280;11362;48.102;11.620;2023-05-28T07:04:24;95345.91;;;23.95;42.50
22389;BME280;11362;48.102;11.620;2023-05-28T07:06:49;95369.66;;;23.96;42.35
22389;BME280;11362;48.102;11.620;2023-05-28T07:09:15;95373.63;;;23.95;42.52
22389;BME280;11362;48.102;11.620;2023-05-28T07:11:40;95374.44;;;23.96;42.29
22389;BME280;11362;48.102;11.620;2023-05-28T07:14:05;95366.88;;;23.96;42.46
22389;BME280;11362;48.102;11.620;2023-05-28T07:16:31;95364.91;;;23.97;42.56
22389;BME280;11362;48.102;11.620;2023-05-28T07:18:56;95366.13;;;23.96;42.46
22389;BME280;11362;48.102;11.620;2023-05-28T07:21:21;95345.91;;;23.95;42.37
22389;BME280;11362;48.102;11.620;2023-05-28T07:23:47;95338.38;;;23.96;42.20
22389;BME280;11362;48.102;11.620;2023-05-28T07:26:12;95340.34;;;23.95;42.18
22389;BME280;11362;48.102;11.620;2023-05-28T07:28:37;95362.53;;;23.95;42.38
22389;BME280;11362;48.102;11.620;2023-05-28T07:31:03;95360.56;;;23.96;42.19
22389;BME280;11362;48.102;11.620;2023-05-28T07:33:28;95355.03;;;23.96;41.96
22389;BME280;11362;48.102;11.620;2023-05-28T07:35:53;95352.25;;;23.96;42.18
22389;BME280;11362;48.102;11.620;2023-05-28T07:38:18;95355.78;;;23.96;42.28
22389;BME280;11362;48.102;11.620;2023-05-28T07:40:44;95335.59;;;23.96;42.08
22389;BME280;11362;48.102;11.620;2023-05-28T07:43:09;95334.38;;;23.97;42.24
22389;BME280;11362;48.102;11.620;2023-05-28T07:45:34;95334.38;;;23.97;42.01
22389;BME280;11362;48.102;11.620;2023-05-28T07:48:00;95335.16;;;23.97;42.10
22389;BME280;11362;48.102;11.620;2023-05-28T07:50:26;95338.69;;;24.01;42.24
22389;BME280;11362;48.102;11.620;2023-05-28T07:52:51;95354.88;;;24.06;42.17
22389;BME280;11362;48.102;11.620;2023-05-28T07:55:17;95354.88;;;24.06;42.46
22389;BME280;11362;48.102;11.620;2023-05-28T07:57:42;95359.22;;;24.07;42.17
22389;BME280;11362;48.102;11.620;2023-05-28T08:00:08;95358.41;;;24.07;42.24
22389;BME280;11362;48.102;11.620;2023-05-28T08:02:33;95356.03;;;24.05;42.47
22389;BME280;11362;48.102;11.620;2023-05-28T08:04:58;95351.66;;;24.08;42.57
22389;BME280;11362;48.102;11.620;2023-05-28T08:07:24;95350.41;;;24.12;43.03
22389;BME280;11362;48.102;11.620;2023-05-28T08:09:49;95347.63;;;24.12;43.21
22389;BME280;11362;48.102;11.620;2023-05-28T08:12:14;95346.44;;;24.13;43.25
22389;BME280;11362;48.102;11.620;2023-05-28T08:14:39;95352.00;;;24.13;43.15
22389;BME280;11362;48.102;11.620;2023-05-28T08:17:05;95349.63;;;24.12;43.05
22389;BME280;11362;48.102;11.620;2023-05-28T08:19:30;95349.28;;;24.10;43.01
22389;BME280;11362;48.102;11.620;2023-05-28T08:21:55;95350.03;;;24.10;43.19
22389;BME280;11362;48.102;11.620;2023-05-28T08:24:21;95348.88;;;24.08;42.96
22389;BME280;11362;48.102;11.620;2023-05-28T08:26:46;95340.16;;;24.09;43.15
22389;BME280;11362;48.102;11.620;2023-05-28T08:29:11;95347.25;;;24.10;43.06
22389;BME280;11362;48.102;11.620;2023-05-28T08:31:37;95365.13;;;24.09;43.24
22389;BME280;11362;48.102;11.620;2023-05-28T08:34:02;95342.91;;;24.09;43.19
22389;BME280;11362;48.102;11.620;2023-05-28T08:36:27;95350.00;;;24.14;44.36
22389;BME280;11362;48.102;11.620;2023-05-28T08:38:53;95342.03;;;24.16;44.10
22389;BME280;11362;48.102;11.620;2023-05-28T08:41:19;95343.19;;;24.18;44.19
22389;BME280;11362;48.102;11.620;2023-05-28T08:43:44;95339.19;;;24.19;44.56
22389;BME280;11362;48.102;11.620;2023-05-28T08:46:11;95339.59;;;24.21;44.70
22389;BME280;11362;48.102;11.620;2023-05-28T08:48:36;95330.03;;;24.22;44.53
22389;BME280;11362;48.102;11.620;2023-05-28T08:51:02;95334.38;;;24.23;45.09
22389;BME280;11362;48.102;11.620;2023-05-28T08:53:31;95332.75;;;24.26;45.21
22389;BME280;11362;48.102;11.620;2023-05-28T08:55:58;95337.88;;;24.27;44.83
22389;BME280;11362;48.102;11.620;2023-05-28T08:58:24;95332.72;;;24.29;44.93
22389;BME280;11362;48.102;11.620;2023-05-28T09:00:50;95331.16;;;24.28;45.13
22389;BME280;11362;48.102;11.620;2023-05-28T09:03:15;95329.53;;;24.27;44.68
22389;BME280;11362;48.102;11.620;2023-05-28T09:05:41;95329.53;;;24.27;44.92
22389;BME280;11362;48.102;11.620;2023-05-28T09:08:08;95329.13;;;24.29;44.98
22389;BME280;11362;48.102;11.620;2023-05-28T09:10:38;95295.88;;;24.25;44.96
22389;BME280;11362;48.102;11.620;2023-05-28T09:13:04;95300.22;;;24.26;44.75
22389;BME280;11362;48.102;11.620;2023-05-28T09:15:30;95326.00;;;24.27;44.58
22389;BME280;11362;48.102;11.620;2023-05-28T09:17:58;95320.44;;;24.27;44.53
22389;BME280;11362;48.102;11.620;2023-05-28T09:20:24;95313.75;;;24.24;44.41
22389;BME280;11362;48.102;11.620;2023-05-28T09:23:03;95321.28;;;24.24;44.40
22389;BME280;11362;48.102;11.620;2023-05-28T09:25:29;95324.50;;;24.22;44.16
22389;BME280;11362;48.102;11.620;2023-05-28T09:27:56;95318.59;;;24.20;44.00
22389;BME280;11362;48.102;11.620;2023-05-28T09:30:21;95320.56;;;24.20;44.01
22389;BME280;11362;48.102;11.620;2023-05-28T09:32:55;95306.75;;;24.16;43.86
22389;BME280;11362;48.102;11.620;2023-05-28T09:35:20;95317.00;;;24.19;43.92
22389;BME280;11362;48.102;11.620;2023-05-28T09:37:45;95317.44;;;24.18;43.78
22389;BME280;11362;48.102;11.620;2023-05-28T09:40:11;95314.66;;;24.18;43.75
22389;BME280;11362;48.102;11.620;2023-05-28T09:42:37;95321.81;;;24.15;43.25
22389;BME280;11362;48.102;11.620;2023-05-28T09:45:03;95309.16;;;24.14;43.35
22389;BME280;11362;48.102;11.620;2023-05-28T09:47:28;95317.84;;;24.16;43.12
22389;BME280;11362;48.102;11.620;2023-05-28T09:49:54;95314.28;;;24.16;43.30
22389;BME280;11362;48.102;11.620;2023-05-28T09:52:20;95315.47;;;24.15;43.05
22389;BME280;11362;48.102;11.620;2023-05-28T09:54:55;95314.28;;;24.16;43.22
22389;BME280;11362;48.102;11.620;2023-05-28T09:57:24;95298.81;;;24.15;43.15
22389;BME280;11362;48.102;11.620;2023-05-28T09:59:53;95309.94;;;24.15;43.22
22389;BME280;11362;48.102;11.620;2023-05-28T10:02:40;95306.75;;;24.16;43.02
22389;BME280;11362;48.102;11.620;2023-05-28T10:05:13;95300.38;;;24.16;43.00
22389;BME280;11362;48.102;11.620;2023-05-28T10:07:40;95310.72;;;24.15;43.08
22389;BME280;11362;48.102;11.620;2023-05-28T10:10:08;95302.41;;;24.15;42.73
22389;BME280;11362;48.102;11.620;2023-05-28T10:12:34;95305.16;;;24.15;42.99
22389;BME280;11362;48.102;11.620;2023-05-28T10:15:00;95309.50;;;24.16;42.97
22389;BME280;11362;48.102;11.620;2023-05-28T10:17:25;95279.41;;;24.15;43.06
22389;BME280;11362;48.102;11.620;2023-05-28T10:19:51;95285.75;;;24.15;42.92
22389;BME280;11362;48.102;11.620;2023-05-28T10:22:16;95282.97;;;24.15;42.99
22389;BME280;11362;48.102;11.620;2023-05-28T10:24:42;95310.72;;;24.15;43.25
22389;BME280;11362;48.102;11.620;2023-05-28T10:27:17;95313.91;;;24.14;43.28
22389;BME280;11362;48.102;11.620;2023-05-28T10:29:43;95307.59;;;24.13;43.41
22389;BME280;11362;48.102;11.620;2023-05-28T10:32:09;95308.72;;;24.16;43.47
22389;BME280;11362;48.102;11.620;2023-05-28T10:34:38;95301.94;;;24.20;43.57
22389;BME280;11362;48.102;11.620;2023-05-28T10:37:06;95297.94;;;24.21;43.95
22389;BME280;11362;48.102;11.620;2023-05-28T10:42:08;95292.41;;;24.21;43.67
22389;BME280;11362;48.102;11.620;2023-05-28T10:45:05;95292.41;;;24.21;43.78
22389;BME280;11362;48.102;11.620;2023-05-28T10:47:38;95295.16;;;24.21;43.85
22389;BME280;11362;48.102;11.620;2023-05-28T10:50:12;95290.38;;;24.22;43.87
22389;BME280;11362;48.102;11.620;2023-05-28T10:52:38;95289.63;;;24.21;43.84
22389;BME280;11362;48.102;11.620;2023-05-28T10:55:06;95286.84;;;24.21;43.78
22389;BME280;11362;48.102;11.620;2023-05-28T10:57:46;95293.97;;;24.22;44.09
22389;BME280;11362;48.102;11.620;2023-05-28T11:00:12;95283.63;;;24.23;44.04
22389;BME280;11362;48.102;11.620;2023-05-28T11:02:41;95272.53;;;24.23;44.13
22389;BME280;11362;48.102;11.620;2023-05-28T11:05:07;95279.28;;;24.22;44.27
22389;BME280;11362;48.102;11.620;2023-05-28T11:07:35;95278.88;;;24.23;44.25
22389;BME280;11362;48.102;11.620;2023-05-28T11:10:03;95270.53;;;24.23;44.16
22389;BME280;11362;48.102;11.620;2023-05-28T11:12:30;95272.53;;;24.23;44.27
22389;BME280;11362;48.102;11.620;2023-05-28T11:14:56;95271.75;;;24.22;44.01
22389;BME280;11362;48.102;11.620;2023-05-28T11:17:22;95276.50;;;24.22;43.85
22389;BME280;11362;48.102;11.620;2023-05-28T11:19:49;95278.50;;;24.21;43.78
22389;BME280;11362;48.102;11.620;2023-05-28T11:22:16;95279.72;;;24.20;43.67
22389;BME280;11362;48.102;11.620;2023-05-28T11:24:53;95283.69;;;24.19;43.50
22389;BME280;11362;48.102;11.620;2023-05-28T11:27:20;95283.69;;;24.19;43.36
22389;BME280;11362;48.102;11.620;2023-05-28T11:29:46;95280.56;;;24.17;43.53
22389;BME280;11362;48.102;11.620;2023-05-28T11:32:11;95281.34;;;24.18;43.17
22389;BME280;11362;48.102;11.620;2023-05-28T11:34:37;95273.78;;;24.18;43.15
22389;BME280;11362;48.102;11.620;2023-05-28T11:37:03;95280.97;;;24.16;43.17
22389;BME280;11362;48.102;11.620;2023-05-28T11:39:28;95276.22;;;24.16;43.09
22389;BME280;11362;48.102;11.620;2023-05-28T11:41:53;95274.22;;;24.17;43.05
22389;BME280;11362;48.102;11.620;2023-05-28T11:44:20;95273.44;;;24.16;42.95
22389;BME280;11362;48.102;11.620;2023-05-28T11:46:45;95269.44;;;24.17;42.94
22389;BME280;11362;48.102;11.620;2023-05-28T11:49:11;95264.69;;;24.18;42.91
22389;BME280;11362;48.102;11.620;2023-05-28T11:51:36;95281.34;;;24.18;42.94
22389;BME280;11362;48.102;11.620;2023-05-28T11:54:01;95281.75;;;24.16;42.32
22389;BME280;11362;48.102;11.620;2023-05-28T11:56:27;95282.63;;;24.13;39.58
22389;BME280;11362;48.102;11.620;2023-05-28T11:58:52;95274.75;;;24.08;38.96
22389;BME280;11362;48.102;11.620;2023-05-28T12:01:17;95269.63;;;24.07;39.32
22389;BME280;11362;48.102;11.620;2023-05-28T12:03:43;95275.56;;;24.05;38.65
22389;BME280;11362;48.102;11.620;2023-05-28T12:06:08;95271.22;;;24.04;38.76
22389;BME280;11362;48.102;11.620;2023-05-28T12:08:33;95280.00;;;24.03;37.23
22389;BME280;11362;48.102;11.620;2023-05-28T12:11:02;95269.66;;;24.03;38.00
22389;BME280;11362;48.102;11.620;2023-05-28T12:13:34;95272.81;;;24.05;37.86
22389;BME280;11362;48.102;11.620;2023-05-28T12:16:09;95269.31;;;24.01;36.58
22389;BME280;11362;48.102;11.620;2023-05-28T12:18:41;95269.72;;;24.00;37.02
22389;BME280;11362;48.102;11.620;2023-05-28T12:21:12;95265.75;;;24.01;36.48
22389;BME280;11362;48.102;11.620;2023-05-28T12:23:37;95245.16;;;23.98;37.21
22389;BME280;11362;48.102;11.620;2023-05-28T12:26:02;95240.34;;;24.02;37.14
22389;BME280;11362;48.102;11.620;2023-05-28T12:28:28;95230.06;;;24.03;37.23
22389;BME280;11362;48.102;11.620;2023-05-28T12:30:53;95226.06;;;24.04;37.35
22389;BME280;11362;48.102;11.620;2023-05-28T12:33:20;95224.81;;;24.08;37.46
22389;BME280;11362;48.102;11.620;2023-05-28T12:35:46;95223.19;;;24.11;37.81
22389;BME280;11362;48.102;11.620;2023-05-28T12:38:12;95245.75;;;24.13;37.81
22389;BME280;11362;48.102;11.620;2023-05-28T12:40:37;95212.78;;;24.15;37.73
22389;BME280;11362;48.102;11.620;2023-05-28T12:43:03;95267.09;;;24.16;37.75
22389;BME280;11362;48.102;11.620;2023-05-28T12:45:28;95244.13;;;24.15;37.02
22389;BME280;11362;48.102;11.620;2023-05-28T12:47:54;95233.00;;;24.15;38.07